Time;durP1;ratioP1;P1;durP2;ratioP2;P2;SDS_P1;SDS_P2;PMS_P1;PMS_P2;Temp;Humidity;BMP_temperature;BMP_pressure;BME280_temperature;BME280_humidity;BME280_pressure;Samples;Min_cycle;Max_cycle;Signal;HPM_P1;HPM_P2
2021/07/25 00:00:37;;;;;;;6.45;3.80;;;26.50;74.60;;;;;;5052045;28;20048;-70
2021/07/25 00:03:41;;;;;;;8.23;3.88;;;26.50;74.50;;;;;;5039200;28;20056;-71
2021/07/25 00:06:45;;;;;;;7.53;4.60;;;26.60;74.60;;;;;;5033668;28;20375;-71
2021/07/25 00:09:52;;;;;;;8.85;3.90;;;26.50;74.60;;;;;;5051631;28;20051;-70
2021/07/25 00:12:58;;;;;;;8.70;4.45;;;26.50;74.40;;;;;;5031021;28;20044;-70
2021/07/25 00:16:04;;;;;;;6.18;4.35;;;26.40;75.00;;;;;;5028418;28;20041;-70
2021/07/25 00:19:12;;;;;;;6.32;4.20;;;26.20;75.50;;;;;;5038466;28;20526;-70
2021/07/25 00:22:16;;;;;;;5.30;4.10;;;26.10;76.20;;;;;;5050853;28;20044;-70
2021/07/25 00:25:20;;;;;;;7.40;4.25;;;26.00;76.60;;;;;;5050952;28;20039;-70
2021/07/25 00:28:32;;;;;;;7.03;4.03;;;25.90;76.70;;;;;;5051039;28;20522;-70
2021/07/25 00:31:37;;;;;;;9.48;3.70;;;25.90;76.40;;;;;;5049835;28;20036;-69
2021/07/25 00:34:42;;;;;;;11.13;4.30;;;26.00;76.20;;;;;;5044344;28;20041;-70
2021/07/25 00:37:49;;;;;;;11.02;4.20;;;26.10;76.30;;;;;;5023257;28;20052;-69
2021/07/25 00:40:58;;;;;;;7.18;4.78;;;26.20;75.90;;;;;;5020955;28;20037;-71
2021/07/25 00:44:02;;;;;;;10.85;4.30;;;26.20;75.50;;;;;;5018581;28;20045;-69
2021/07/25 00:47:07;;;;;;;9.32;3.85;;;26.30;75.30;;;;;;5022544;28;20044;-70
2021/07/25 00:50:11;;;;;;;8.63;4.47;;;26.30;75.60;;;;;;5022370;28;20049;-70
2021/07/25 00:53:17;;;;;;;9.07;3.53;;;26.30;75.10;;;;;;5030448;28;20040;-70
2021/07/25 00:56:22;;;;;;;9.77;4.07;;;26.40;74.80;;;;;;5030354;28;20037;-70
2021/07/25 00:59:27;;;;;;;11.50;4.03;;;26.60;73.60;;;;;;5030256;28;20054;-71
2021/07/25 01:02:38;;;;;;;4.38;3.90;;;26.90;72.80;;;;;;5029988;28;20056;-69
2021/07/25 01:06:02;;;;;;;10.20;3.90;;;27.10;72.00;;;;;;5029284;28;20056;-70
2021/07/25 01:09:17;;;;;;;8.48;4.03;;;27.20;71.70;;;;;;5029817;28;20048;-70
2021/07/25 01:12:26;;;;;;;8.70;3.47;;;27.30;71.80;;;;;;5027771;28;20339;-71
2021/07/25 01:15:32;;;;;;;6.20;3.92;;;27.30;71.00;;;;;;5030042;28;20388;-72
2021/07/25 01:18:47;;;;;;;5.95;3.75;;;27.40;70.80;;;;;;5030090;28;20052;-68
2021/07/25 01:21:51;;;;;;;17.50;4.45;;;27.50;70.40;;;;;;5029244;28;20044;-70
2021/07/25 01:24:56;;;;;;;11.05;3.88;;;27.50;71.30;;;;;;5029540;28;20040;-70
2021/07/25 01:28:03;;;;;;;4.72;3.30;;;27.10;72.30;;;;;;5029639;28;20519;-70
2021/07/25 01:31:14;;;;;;;12.15;4.55;;;26.90;73.00;;;;;;5029146;28;20036;-68
2021/07/25 01:34:18;;;;;;;8.63;3.97;;;26.70;73.10;;;;;;5029428;28;20036;-71
2021/07/25 01:37:24;;;;;;;9.07;4.10;;;26.60;73.90;;;;;;5028601;28;20629;-70
2021/07/25 01:40:29;;;;;;;7.47;4.10;;;26.50;73.80;;;;;;5029120;28;20423;-70
2021/07/25 01:43:35;;;;;;;6.13;3.78;;;26.60;73.00;;;;;;5029321;28;20037;-70
2021/07/25 01:46:39;;;;;;;8.68;4.15;;;26.80;72.20;;;;;;5029368;28;20048;-70
2021/07/25 01:49:43;;;;;;;9.73;4.13;;;26.80;72.20;;;;;;5029391;28;20045;-70
2021/07/25 01:52:47;;;;;;;8.45;3.97;;;26.80;72.10;;;;;;5030009;28;20040;-71
2021/07/25 01:55:51;;;;;;;6.32;4.30;;;26.80;72.30;;;;;;5029786;28;20048;-70
2021/07/25 01:58:56;;;;;;;10.43;4.05;;;27.00;72.00;;;;;;5030347;28;20057;-71
2021/07/25 02:02:01;;;;;;;9.75;3.88;;;26.80;72.20;;;;;;5029434;28;20590;-68
2021/07/25 02:05:05;;;;;;;11.82;4.15;;;26.40;73.20;;;;;;5028663;28;20392;-69
2021/07/25 02:08:10;;;;;;;9.02;3.95;;;26.40;73.50;;;;;;5030041;28;20400;-70
2021/07/25 02:11:18;;;;;;;9.65;4.03;;;26.30;73.60;;;;;;5045530;28;20032;-69
2021/07/25 02:14:22;;;;;;;7.60;3.72;;;26.10;74.80;;;;;;5053834;28;20039;-70
2021/07/25 02:17:26;;;;;;;9.43;3.95;;;25.70;77.40;;;;;;5053834;28;20586;-70
2021/07/25 02:20:30;;;;;;;7.75;4.10;;;25.40;79.40;;;;;;5053330;28;20040;-70
2021/07/25 02:23:34;;;;;;;6.95;3.80;;;25.10;80.70;;;;;;5053578;28;20060;-69
2021/07/25 02:26:38;;;;;;;7.68;4.72;;;24.90;82.10;;;;;;5053250;28;20044;-70
2021/07/25 02:29:42;;;;;;;8.10;3.88;;;24.70;83.60;;;;;;5053571;28;20039;-70
2021/07/25 02:32:46;;;;;;;6.30;4.03;;;24.50;84.20;;;;;;5053578;28;20044;-70
2021/07/25 02:35:52;;;;;;;7.68;4.05;;;24.30;85.10;;;;;;5053032;28;20036;-70
2021/07/25 02:38:56;;;;;;;6.78;4.05;;;24.30;85.30;;;;;;5053458;28;20048;-70
2021/07/25 02:42:02;;;;;;;8.10;4.28;;;24.30;85.90;;;;;;5052763;28;20044;-70
2021/07/25 02:45:06;;;;;;;6.93;4.05;;;24.10;86.40;;;;;;5053339;28;20040;-70
2021/07/25 02:48:10;;;;;;;9.68;4.35;;;24.10;86.50;;;;;;5052968;28;20103;-70
2021/07/25 02:51:14;;;;;;;8.80;4.43;;;24.10;86.90;;;;;;5052509;28;20507;-70
2021/07/25 02:54:18;;;;;;;6.80;3.95;;;24.00;87.40;;;;;;5052159;28;20036;-70
2021/07/25 02:57:22;;;;;;;8.23;4.53;;;24.00;86.90;;;;;;5048375;28;20044;-70
2021/07/25 03:00:26;;;;;;;9.40;4.20;;;24.00;87.10;;;;;;5046540;28;20036;-70
2021/07/25 03:03:30;;;;;;;5.72;3.97;;;23.90;87.20;;;;;;5039581;28;20052;-70
2021/07/25 03:06:34;;;;;;;7.82;4.35;;;23.80;87.70;;;;;;5035494;28;20024;-70
2021/07/25 03:09:38;;;;;;;11.70;4.30;;;23.80;88.30;;;;;;5052589;28;20067;-70
2021/07/25 03:12:42;;;;;;;7.05;4.18;;;23.70;88.10;;;;;;5052681;28;20415;-70
2021/07/25 03:15:45;;;;;;;7.82;4.22;;;23.70;88.30;;;;;;5043846;28;20040;-71
2021/07/25 03:18:50;;;;;;;16.02;4.43;;;23.60;88.80;;;;;;5032768;28;20396;-70
2021/07/25 03:21:54;;;;;;;7.75;4.78;;;23.60;89.40;;;;;;5031312;28;20044;-70
2021/07/25 03:24:58;;;;;;;5.20;3.88;;;23.60;89.30;;;;;;5032301;28;20060;-70
2021/07/25 03:28:02;;;;;;;8.55;4.88;;;23.60;89.60;;;;;;5032077;28;20052;-70
2021/07/25 03:31:07;;;;;;;9.23;4.50;;;23.50;89.30;;;;;;5032062;28;20408;-70
2021/07/25 03:34:12;;;;;;;8.38;4.70;;;23.50;89.30;;;;;;5052149;28;20044;-70
2021/07/25 03:37:17;;;;;;;8.73;4.88;;;23.30;90.00;;;;;;5051705;28;20063;-70
2021/07/25 03:40:24;;;;;;;6.75;4.47;;;23.20;90.20;;;;;;5051684;28;20048;-70
2021/07/25 03:43:30;;;;;;;10.60;4.55;;;23.10;90.50;;;;;;5051964;28;20040;-70
2021/07/25 03:46:36;;;;;;;7.63;4.80;;;23.10;90.60;;;;;;5051819;28;20040;-70
2021/07/25 03:49:41;;;;;;;7.45;5.20;;;22.90;90.70;;;;;;5052006;28;20494;-70
2021/07/25 03:52:45;;;;;;;12.25;4.32;;;22.90;90.90;;;;;;5051965;28;20036;-70
2021/07/25 03:55:50;;;;;;;7.78;4.30;;;22.80;91.10;;;;;;5051806;28;20040;-70
2021/07/25 03:58:53;;;;;;;7.57;4.30;;;22.70;91.30;;;;;;5051825;28;20491;-70
2021/07/25 04:01:57;;;;;;;6.10;4.53;;;22.70;91.40;;;;;;5050983;28;20040;-70
2021/07/25 04:05:01;;;;;;;9.63;4.47;;;22.60;91.40;;;;;;5051565;28;20048;-70
2021/07/25 04:08:10;;;;;;;10.00;4.50;;;22.70;91.40;;;;;;5033275;28;20048;-70
2021/07/25 04:11:21;;;;;;;11.43;4.60;;;22.70;91.50;;;;;;5031384;28;20041;-70
2021/07/25 04:14:24;;;;;;;9.32;4.72;;;22.60;91.80;;;;;;5031352;28;20036;-70
2021/07/25 04:17:29;;;;;;;6.63;4.15;;;22.60;91.90;;;;;;5031648;28;20048;-70
2021/07/25 04:20:35;;;;;;;8.40;4.70;;;22.50;91.90;;;;;;5030874;28;20045;-70
2021/07/25 04:23:42;;;;;;;7.60;4.63;;;22.50;91.90;;;;;;5031299;28;20052;-70
2021/07/25 04:26:50;;;;;;;9.75;4.57;;;22.50;92.00;;;;;;5030895;28;20045;-70
2021/07/25 04:29:57;;;;;;;8.77;4.80;;;22.50;92.00;;;;;;5031067;28;20044;-70
2021/07/25 04:33:03;;;;;;;10.63;4.72;;;22.50;92.00;;;;;;5030141;28;20044;-70
2021/07/25 04:36:24;;;;;;;5.82;4.65;;;22.50;92.00;;;;;;5031338;28;20049;-70
2021/07/25 04:39:28;;;;;;;13.45;5.15;;;22.50;92.00;;;;;;5031500;28;20044;-70
2021/07/25 04:42:35;;;;;;;11.38;4.93;;;22.60;92.00;;;;;;5031406;28;20064;-70
2021/07/25 04:45:59;;;;;;;15.27;5.47;;;22.60;92.10;;;;;;5031539;28;20045;-70
2021/07/25 04:49:13;;;;;;;20.17;5.28;;;22.60;92.10;;;;;;5031182;28;20048;-71
2021/07/25 04:52:23;;;;;;;15.82;4.93;;;22.60;92.00;;;;;;5030549;28;20299;-70
2021/07/25 04:55:33;;;;;;;10.05;4.70;;;22.70;91.90;;;;;;5031143;28;20499;-70
2021/07/25 04:58:41;;;;;;;9.75;4.60;;;22.70;91.90;;;;;;5031306;28;20392;-70
2021/07/25 05:01:47;;;;;;;9.45;5.20;;;22.80;91.80;;;;;;5030539;28;20986;-70
2021/07/25 05:04:51;;;;;;;7.22;4.35;;;22.90;91.70;;;;;;5030751;28;20060;-70
2021/07/25 05:08:01;;;;;;;5.82;4.25;;;23.00;91.60;;;;;;5046907;28;20044;-70
2021/07/25 05:11:15;;;;;;;5.80;4.05;;;23.20;91.40;;;;;;5050550;28;20502;-70
2021/07/25 05:14:28;;;;;;;8.07;4.47;;;23.40;91.00;;;;;;5027181;28;20036;-70
2021/07/25 05:17:50;;;;;;;9.18;4.43;;;23.60;91.00;;;;;;5030498;28;20040;-70
2021/07/25 05:21:26;;;;;;;7.40;4.60;;;23.60;90.90;;;;;;5030218;28;20040;-70
2021/07/25 05:24:41;;;;;;;6.07;4.38;;;23.90;90.90;;;;;;5030108;28;20049;-70
2021/07/25 05:27:48;;;;;;;7.93;4.80;;;24.80;90.30;;;;;;5030341;28;20060;-70
2021/07/25 05:30:54;;;;;;;7.50;4.30;;;25.70;88.50;;;;;;5030152;28;20032;-69
2021/07/25 05:34:00;;;;;;;7.97;4.32;;;26.60;87.90;;;;;;5030576;28;20045;-69
2021/07/25 05:37:04;;;;;;;5.57;4.03;;;27.60;86.00;;;;;;5030110;28;20420;-69
2021/07/25 05:40:10;;;;;;;8.90;4.70;;;27.90;84.20;;;;;;5029825;28;20047;-69
2021/07/25 05:43:14;;;;;;;9.73;4.30;;;27.90;84.00;;;;;;5029277;28;20469;-70
2021/07/25 05:46:18;;;;;;;9.85;4.10;;;27.50;83.60;;;;;;5029379;28;20052;-70
2021/07/25 05:49:23;;;;;;;5.63;3.80;;;27.00;85.00;;;;;;5030058;28;20060;-70
2021/07/25 05:52:27;;;;;;;6.38;4.25;;;28.00;84.90;;;;;;5029989;28;20037;-69
2021/07/25 05:55:33;;;;;;;7.30;4.32;;;27.60;84.60;;;;;;5030244;28;20040;-70
2021/07/25 05:58:38;;;;;;;6.90;4.05;;;27.10;85.60;;;;;;5030055;28;20125;-69
2021/07/25 06:01:44;;;;;;;7.78;4.32;;;26.80;85.50;;;;;;5027920;28;20041;-69
2021/07/25 06:04:49;;;;;;;15.40;4.45;;;27.00;85.30;;;;;;5030255;28;20056;-69
2021/07/25 06:07:54;;;;;;;6.82;4.10;;;26.10;87.20;;;;;;5045985;28;20056;-70
2021/07/25 06:10:59;;;;;;;13.98;5.13;;;25.80;87.40;;;;;;5049602;28;20032;-69
2021/07/25 06:14:03;;;;;;;9.80;4.78;;;26.40;87.30;;;;;;5049975;28;20040;-69
2021/07/25 06:17:07;;;;;;;7.47;4.22;;;26.40;86.50;;;;;;5050136;28;20044;-69
2021/07/25 06:20:12;;;;;;;9.93;4.03;;;26.20;87.30;;;;;;5049292;28;20044;-69
2021/07/25 06:23:16;;;;;;;7.88;4.60;;;27.20;85.90;;;;;;5049673;28;20392;-69
2021/07/25 06:26:21;;;;;;;9.68;4.32;;;26.70;86.00;;;;;;5044410;28;20036;-70
2021/07/25 06:29:25;;;;;;;14.30;4.90;;;27.00;86.50;;;;;;5009839;28;20057;-69
2021/07/25 06:32:58;;;;;;;6.95;4.47;;;27.20;86.40;;;;;;5018244;28;20032;-70
2021/07/25 06:36:04;;;;;;;10.60;4.57;;;27.40;86.40;;;;;;5029481;28;20495;-70
2021/07/25 06:39:09;;;;;;;9.27;4.40;;;27.60;86.30;;;;;;5029815;28;20121;-70
2021/07/25 06:42:13;;;;;;;9.70;4.15;;;28.00;85.10;;;;;;5028386;28;20467;-70
2021/07/25 06:45:17;;;;;;;9.25;5.05;;;28.60;84.90;;;;;;5029291;28;20056;-70
2021/07/25 06:48:24;;;;;;;12.68;4.70;;;28.00;85.00;;;;;;5029537;28;20049;-71
2021/07/25 06:51:28;;;;;;;10.23;4.30;;;28.30;84.50;;;;;;5025443;28;20041;-70
2021/07/25 06:54:32;;;;;;;6.90;4.53;;;29.00;84.30;;;;;;5025008;28;20037;-70
2021/07/25 06:57:36;;;;;;;8.95;4.10;;;29.60;83.80;;;;;;5029172;28;20037;-70
2021/07/25 07:00:41;;;;;;;4.78;3.88;;;30.10;81.70;;;;;;5032259;28;20049;-71
2021/07/25 07:03:45;;;;;;;8.50;4.00;;;30.00;81.90;;;;;;5028905;28;20045;-70
2021/07/25 07:06:49;;;;;;;6.07;3.88;;;30.40;82.50;;;;;;5030962;28;20048;-70
2021/07/25 07:09:53;;;;;;;9.43;3.78;;;30.40;81.90;;;;;;5032234;28;20396;-69
2021/07/25 07:12:59;;;;;;;9.20;3.80;;;30.50;80.60;;;;;;5032448;28;20040;-70
2021/07/25 07:16:03;;;;;;;8.57;3.97;;;30.30;81.50;;;;;;5032113;28;20044;-70
2021/07/25 07:19:07;;;;;;;5.78;4.03;;;29.70;80.30;;;;;;5031804;28;20044;-69
2021/07/25 07:22:25;;;;;;;6.85;3.95;;;29.10;82.40;;;;;;5032031;28;20032;-69
2021/07/25 07:25:32;;;;;;;7.15;3.88;;;29.20;81.10;;;;;;5032062;28;20048;-70
2021/07/25 07:28:39;;;;;;;5.43;3.42;;;29.80;78.70;;;;;;5032622;28;20048;-71
2021/07/25 07:31:44;;;;;;;10.38;3.90;;;30.40;75.30;;;;;;5024460;28;20048;-70
2021/07/25 07:34:48;;;;;;;5.53;3.75;;;29.60;75.80;;;;;;5023576;28;20045;-68
2021/07/25 07:37:52;;;;;;;7.07;3.75;;;30.40;76.40;;;;;;5019963;28;20056;-69
2021/07/25 07:40:58;;;;;;;7.35;3.55;;;29.90;74.70;;;;;;5023039;28;20136;-67
2021/07/25 07:44:02;;;;;;;9.73;3.75;;;30.80;72.90;;;;;;5025875;28;20045;-69
2021/07/25 07:47:06;;;;;;;6.63;3.70;;;30.60;74.00;;;;;;5022827;28;20056;-69
2021/07/25 07:50:11;;;;;;;7.85;3.60;;;30.00;73.90;;;;;;5024251;28;20040;-67
2021/07/25 07:53:18;;;;;;;5.85;3.67;;;30.90;73.70;;;;;;5020400;28;20049;-69
2021/07/25 07:56:26;;;;;;;6.05;3.30;;;31.00;72.40;;;;;;5021270;28;20044;-68
2021/07/25 07:59:30;;;;;;;10.50;3.83;;;32.30;71.00;;;;;;5023081;28;20045;-69
2021/07/25 08:02:35;;;;;;;9.30;3.80;;;32.10;71.40;;;;;;5020942;28;20057;-69
2021/07/25 08:05:39;;;;;;;8.32;3.05;;;32.30;70.20;;;;;;5022265;28;20044;-69
2021/07/25 08:08:44;;;;;;;8.80;3.78;;;31.90;68.30;;;;;;5020877;28;20503;-68
2021/07/25 08:11:51;;;;;;;6.15;3.92;;;32.20;71.20;;;;;;5020565;28;20048;-68
2021/07/25 08:14:55;;;;;;;5.30;3.60;;;30.70;72.00;;;;;;5022428;28;20511;-68
2021/07/25 08:17:59;;;;;;;5.20;3.33;;;31.20;72.30;;;;;;5024625;28;20033;-67
2021/07/25 08:21:04;;;;;;;8.48;3.60;;;31.50;71.40;;;;;;5018019;28;20369;-69
2021/07/25 08:24:08;;;;;;;6.57;3.55;;;31.10;71.20;;;;;;5011809;28;20049;-69
2021/07/25 08:27:12;;;;;;;6.22;3.30;;;31.80;71.00;;;;;;5029519;28;20048;-69
2021/07/25 08:30:16;;;;;;;4.72;3.17;;;32.80;69.70;;;;;;5026193;28;20044;-69
2021/07/25 08:33:21;;;;;;;13.10;4.10;;;32.70;70.30;;;;;;5024337;28;20037;-69
2021/07/25 08:36:25;;;;;;;11.57;3.78;;;32.00;68.50;;;;;;5011265;28;20045;-70
2021/07/25 08:39:30;;;;;;;8.77;3.65;;;31.80;70.50;;;;;;5011255;28;20078;-68
2021/07/25 08:42:43;;;;;;;10.15;3.78;;;30.60;71.80;;;;;;5011316;28;20504;-69
2021/07/25 08:45:47;;;;;;;8.63;3.28;;;30.40;71.00;;;;;;5007553;28;20048;-69
2021/07/25 08:48:54;;;;;;;9.45;3.60;;;30.90;70.30;;;;;;5023802;28;20392;-69
2021/07/25 08:51:59;;;;;;;5.18;3.30;;;31.20;72.10;;;;;;5026565;28;20049;-69
2021/07/25 08:55:10;;;;;;;7.60;3.40;;;32.90;69.60;;;;;;5014329;28;20033;-69
2021/07/25 08:58:14;;;;;;;4.37;3.13;;;33.10;66.40;;;;;;5027774;28;20052;-70
2021/07/25 09:01:19;;;;;;;8.43;2.85;;;33.60;67.30;;;;;;5031490;28;20041;-69
2021/07/25 09:04:24;;;;;;;7.28;3.45;;;34.00;67.20;;;;;;5050703;28;20040;-70
2021/07/25 09:07:31;;;;;;;4.30;3.28;;;33.80;65.60;;;;;;5032834;28;20048;-70
2021/07/25 09:10:35;;;;;;;7.28;3.75;;;34.30;64.90;;;;;;5032536;28;20404;-70
2021/07/25 09:13:39;;;;;;;7.20;3.60;;;33.60;65.30;;;;;;5027447;28;20052;-70
2021/07/25 09:16:45;;;;;;;4.20;3.22;;;32.80;66.80;;;;;;5026536;28;20052;-68
2021/07/25 09:20:11;;;;;;;6.35;3.25;;;32.80;66.80;;;;;;5030248;28;20053;-70
2021/07/25 09:23:20;;;;;;;6.45;3.30;;;33.10;66.70;;;;;;5030245;28;20064;-70
2021/07/25 09:26:24;;;;;;;4.78;3.42;;;32.50;66.50;;;;;;5030259;28;20048;-70
2021/07/25 09:29:37;;;;;;;6.22;3.58;;;33.70;66.00;;;;;;5029407;28;20380;-70
2021/07/25 09:32:42;;;;;;;5.10;3.35;;;34.50;64.10;;;;;;5030141;28;20380;-69
2021/07/25 09:35:46;;;;;;;7.30;3.33;;;34.10;65.00;;;;;;5029182;28;20456;-69
2021/07/25 09:38:54;;;;;;;7.35;3.58;;;33.40;65.00;;;;;;5045285;28;20498;-70
2021/07/25 09:41:59;;;;;;;9.57;3.17;;;33.30;65.80;;;;;;5048270;28;20044;-69
2021/07/25 09:45:05;;;;;;;7.63;3.20;;;33.80;66.20;;;;;;5049963;28;20392;-70
2021/07/25 09:48:10;;;;;;;4.40;3.20;;;34.40;64.70;;;;;;5029534;28;20392;-71
2021/07/25 09:54:06;;;;;;;6.18;3.33;;;36.00;62.40;;;;;;5007938;28;20040;-70
2021/07/25 09:57:10;;;;;;;;;;;34.70;63.50;;;;;;5017531;28;20376;-70
2021/07/25 10:00:15;;;;;;;5.38;3.22;;;35.00;62.40;;;;;;5020278;28;19920;-70
2021/07/25 10:03:23;;;;;;;5.10;3.60;;;34.10;64.70;;;;;;5027624;28;20060;-69
2021/07/25 10:06:27;;;;;;;4.45;3.30;;;33.10;66.50;;;;;;5021208;28;20436;-70
2021/07/25 10:09:31;;;;;;;9.13;3.40;;;32.20;65.70;;;;;;5031854;28;20045;-70
2021/07/25 10:12:38;;;;;;;11.10;3.83;;;31.60;66.90;;;;;;5011885;28;20145;-70
2021/07/25 10:15:52;;;;;;;5.93;3.40;;;31.10;68.50;;;;;;5021100;28;20041;-70
2021/07/25 10:19:00;;;;;;;5.75;3.53;;;31.20;69.70;;;;;;5028936;28;20053;-70
2021/07/25 10:22:09;;;;;;;13.63;3.80;;;30.60;69.40;;;;;;5030052;28;20064;-70
2021/07/25 10:25:16;;;;;;;14.52;4.43;;;30.30;70.60;;;;;;5026376;28;20044;-70
2021/07/25 10:28:20;;;;;;;13.00;4.50;;;30.40;71.10;;;;;;5024397;28;20048;-70
2021/07/25 10:31:26;;;;;;;31.80;5.13;;;30.40;71.90;;;;;;5011729;28;20040;-71
2021/07/25 10:34:33;;;;;;;7.22;3.97;;;30.30;70.50;;;;;;5030431;28;20040;-71
2021/07/25 10:37:41;;;;;;;10.02;4.38;;;30.30;70.80;;;;;;5035590;28;20483;-70
2021/07/25 10:40:48;;;;;;;11.15;3.75;;;30.30;73.30;;;;;;5033462;28;20051;-70
2021/07/25 10:43:53;;;;;;;7.80;4.03;;;30.50;73.60;;;;;;5034268;28;20064;-70
2021/07/25 10:47:30;;;;;;;6.15;3.38;;;30.60;74.20;;;;;;5044604;28;20056;-70
2021/07/25 10:50:37;;;;;;;6.90;3.45;;;30.40;72.90;;;;;;5028705;28;20045;-70
2021/07/25 10:53:42;;;;;;;5.28;3.40;;;30.20;70.80;;;;;;5031483;28;20047;-70
2021/07/25 10:56:59;;;;;;;8.38;3.50;;;29.80;70.70;;;;;;5032391;28;20060;-69
2021/07/25 11:00:07;;;;;;;14.40;4.13;;;29.60;71.20;;;;;;5033526;28;20037;-70
2021/07/25 11:03:33;;;;;;;8.32;3.97;;;29.30;72.60;;;;;;5031511;28;20048;-68
2021/07/25 11:06:38;;;;;;;9.43;4.10;;;28.90;72.30;;;;;;5033792;28;20052;-71
2021/07/25 11:10:11;;;;;;;15.85;4.20;;;28.80;71.90;;;;;;5016697;28;20060;-69
2021/07/25 11:13:16;;;;;;;5.20;3.75;;;28.60;75.40;;;;;;5021755;28;20041;-70
2021/07/25 11:16:30;;;;;;;7.25;4.03;;;28.50;74.20;;;;;;5026300;28;20053;-70
2021/07/25 11:19:34;;;;;;;11.45;3.80;;;29.40;74.10;;;;;;5027045;28;20399;-70
2021/07/25 11:22:44;;;;;;;8.80;3.20;;;30.50;71.70;;;;;;5030392;28;20036;-72
2021/07/25 11:25:51;;;;;;;7.68;3.97;;;30.80;69.90;;;;;;5031515;28;20044;-69
2021/07/25 11:28:56;;;;;;;7.80;3.85;;;30.60;69.00;;;;;;5033366;28;20040;-71
2021/07/25 11:32:01;;;;;;;7.93;3.92;;;30.50;69.50;;;;;;5030930;28;20117;-69
2021/07/25 11:35:08;;;;;;;8.02;3.85;;;30.80;70.50;;;;;;5031455;28;20551;-71
2021/07/25 11:38:14;;;;;;;5.03;3.38;;;31.60;69.60;;;;;;5031563;28;20045;-71
2021/07/25 11:41:20;;;;;;;11.57;3.70;;;31.10;69.60;;;;;;5031103;28;20048;-71
2021/07/25 11:44:27;;;;;;;7.07;4.10;;;30.80;70.50;;;;;;5029006;28;20048;-70
2021/07/25 11:47:32;;;;;;;8.88;4.60;;;30.90;70.30;;;;;;5031233;28;20052;-70
2021/07/25 11:50:44;;;;;;;11.15;3.55;;;31.10;68.70;;;;;;5028422;28;20392;-70
2021/07/25 11:53:48;;;;;;;9.25;3.40;;;31.30;69.50;;;;;;5031715;28;20384;-71
2021/07/25 11:56:56;;;;;;;7.55;3.70;;;31.20;69.80;;;;;;5031288;28;20041;-68
2021/07/25 12:00:02;;;;;;;10.18;3.35;;;30.30;70.30;;;;;;5031167;28;20048;-70
2021/07/25 12:03:11;;;;;;;9.73;3.67;;;29.90;69.50;;;;;;5031577;28;20044;-70
2021/07/25 12:06:18;;;;;;;19.52;3.97;;;29.50;70.00;;;;;;5029843;28;20408;-68
2021/07/25 12:09:22;;;;;;;17.73;4.65;;;28.40;77.90;;;;;;5030811;28;20048;-70
2021/07/25 12:12:32;;;;;;;11.77;4.53;;;26.50;79.50;;;;;;5029318;28;20041;-70
2021/07/25 12:15:38;;;;;;;14.60;3.72;;;25.90;80.30;;;;;;5031049;28;20044;-70
2021/07/25 12:18:43;;;;;;;10.75;3.72;;;26.80;80.10;;;;;;5031055;28;20384;-71
2021/07/25 12:21:49;;;;;;;10.90;4.22;;;28.70;77.10;;;;;;5026085;28;20040;-70
2021/07/25 12:25:05;;;;;;;10.80;4.13;;;29.70;77.50;;;;;;5021611;28;20036;-71
2021/07/25 12:28:14;;;;;;;13.35;4.30;;;29.90;73.80;;;;;;5012967;28;20036;-69
2021/07/25 12:31:27;;;;;;;9.63;3.90;;;30.00;73.90;;;;;;5008195;28;20503;-70
2021/07/25 12:34:31;;;;;;;8.93;3.58;;;29.70;74.90;;;;;;5015111;28;20037;-70
2021/07/25 12:37:46;;;;;;;6.82;3.63;;;29.90;74.60;;;;;;5012667;28;20151;-70
2021/07/25 12:40:54;;;;;;;9.85;3.33;;;31.10;74.00;;;;;;5013721;28;20429;-69
2021/07/25 12:44:02;;;;;;;10.77;3.50;;;31.60;71.80;;;;;;5014870;28;20065;-71
2021/07/25 12:47:28;;;;;;;7.60;3.92;;;31.50;71.30;;;;;;5016915;28;20052;-70
2021/07/25 12:50:52;;;;;;;7.78;3.47;;;31.10;71.80;;;;;;5014168;28;20049;-71
2021/07/25 12:54:00;;;;;;;5.82;3.17;;;31.60;72.20;;;;;;5019402;28;20060;-70
2021/07/25 12:57:04;;;;;;;11.13;3.72;;;32.20;70.90;;;;;;5020856;28;20037;-68
2021/07/25 13:00:09;;;;;;;10.23;3.60;;;31.30;69.50;;;;;;5020306;28;20041;-68
2021/07/25 13:06:38;;;;;;;7.88;3.58;;;32.70;69.50;;;;;;5018783;28;20052;-69
2021/07/25 13:09:42;;;;;;;6.57;3.10;;;32.40;66.70;;;;;;5019404;28;20057;-68
2021/07/25 13:12:46;;;;;;;10.45;3.20;;;32.90;63.90;;;;;;5019903;28;20036;-70
2021/07/25 13:15:51;;;;;;;8.70;3.08;;;32.60;63.80;;;;;;5009114;28;20037;-70
2021/07/25 13:18:59;;;;;;;15.18;3.95;;;32.90;64.60;;;;;;5008592;28;20412;-70
2021/07/25 13:22:06;;;;;;;10.45;3.17;;;32.80;64.60;;;;;;5007808;28;20036;-70
2021/07/25 13:25:11;;;;;;;10.40;3.25;;;32.40;65.00;;;;;;5018827;28;20056;-70
2021/07/25 13:28:16;;;;;;;11.35;3.55;;;32.30;63.60;;;;;;5017593;28;20126;-70
2021/07/25 13:31:21;;;;;;;7.63;3.53;;;32.50;65.90;;;;;;5025654;28;20499;-70
2021/07/25 13:34:26;;;;;;;7.47;3.85;;;33.20;63.60;;;;;;5025954;28;20052;-71
2021/07/25 13:37:30;;;;;;;6.18;3.65;;;33.20;64.20;;;;;;5023941;28;20041;-69
2021/07/25 13:40:36;;;;;;;6.40;3.83;;;32.70;64.00;;;;;;5026947;28;20048;-70
2021/07/25 13:43:50;;;;;;;11.70;3.83;;;33.20;64.10;;;;;;5027802;28;20396;-70
2021/07/25 13:46:55;;;;;;;9.70;3.53;;;32.50;64.40;;;;;;5026352;28;20056;-70
2021/07/25 13:50:02;;;;;;;10.57;3.05;;;32.30;65.10;;;;;;5027124;28;20511;-69
2021/07/25 13:53:09;;;;;;;8.55;3.28;;;32.70;65.40;;;;;;5020341;28;20040;-70
2021/07/25 13:56:17;;;;;;;10.20;3.53;;;32.90;63.80;;;;;;5003508;28;20045;-70
2021/07/25 13:59:21;;;;;;;7.32;3.17;;;32.60;64.30;;;;;;5002622;28;20478;-71
2021/07/25 14:02:26;;;;;;;5.45;3.10;;;31.60;65.90;;;;;;5014460;28;20048;-70
2021/07/25 14:05:34;;;;;;;9.20;3.25;;;31.50;65.60;;;;;;5015418;28;20051;-68
2021/07/25 14:08:39;;;;;;;12.40;3.55;;;31.70;65.00;;;;;;5017412;28;20397;-69
2021/07/25 14:11:45;;;;;;;9.88;4.18;;;32.10;65.60;;;;;;5018572;28;20056;-69
2021/07/25 14:14:50;;;;;;;8.63;3.55;;;32.10;65.20;;;;;;5015351;28;20045;-70
2021/07/25 14:17:55;;;;;;;13.63;3.92;;;31.90;66.50;;;;;;5019892;28;20516;-70
2021/07/25 14:21:09;;;;;;;10.25;3.90;;;31.70;66.30;;;;;;5016933;28;20048;-70
2021/07/25 14:24:13;;;;;;;12.75;3.92;;;32.00;66.30;;;;;;5017885;28;20791;-69
2021/07/25 14:27:18;;;;;;;10.23;3.60;;;31.70;65.80;;;;;;5023059;28;20065;-70
2021/07/25 14:30:23;;;;;;;10.05;3.58;;;31.60;66.40;;;;;;5020771;28;20040;-71
2021/07/25 14:33:27;;;;;;;8.93;3.40;;;31.70;66.40;;;;;;5016496;28;20484;-70
2021/07/25 14:36:31;;;;;;;15.52;3.60;;;32.10;65.70;;;;;;5020830;28;20037;-71
2021/07/25 14:39:36;;;;;;;9.25;3.45;;;32.30;66.60;;;;;;5020084;28;20039;-70
2021/07/25 14:42:41;;;;;;;8.48;3.65;;;32.50;66.70;;;;;;5016535;28;21065;-71
2021/07/25 14:45:45;;;;;;;7.18;3.80;;;32.70;66.20;;;;;;5018781;28;20037;-70
2021/07/25 14:48:51;;;;;;;9.73;3.28;;;32.30;66.20;;;;;;5018889;28;20037;-71
2021/07/25 14:51:56;;;;;;;7.47;3.40;;;32.00;66.20;;;;;;5016035;28;20048;-70
2021/07/25 14:55:00;;;;;;;12.20;4.18;;;31.60;67.40;;;;;;5023072;28;20040;-70
2021/07/25 14:58:04;;;;;;;10.60;3.70;;;31.40;68.30;;;;;;5009735;28;20072;-70
2021/07/25 15:01:13;;;;;;;7.93;3.72;;;31.00;68.10;;;;;;5027730;28;20411;-69
2021/07/25 15:04:17;;;;;;;9.80;3.90;;;30.60;71.30;;;;;;5010493;28;20483;-70
2021/07/25 15:07:22;;;;;;;15.52;3.78;;;30.60;71.10;;;;;;5011012;28;20064;-71
2021/07/25 15:10:30;;;;;;;8.70;3.70;;;30.80;72.20;;;;;;5009976;28;20669;-70
2021/07/25 15:13:35;;;;;;;8.43;3.53;;;31.10;71.70;;;;;;5010745;28;20051;-71
2021/07/25 15:16:40;;;;;;;14.40;4.35;;;31.20;73.20;;;;;;5026393;28;20040;-69
2021/07/25 15:19:45;;;;;;;11.27;4.18;;;30.80;73.00;;;;;;5031669;28;20048;-70
2021/07/25 15:22:50;;;;;;;9.07;4.10;;;30.50;74.60;;;;;;5020843;28;20384;-70
2021/07/25 15:25:54;;;;;;;8.73;4.13;;;30.40;74.50;;;;;;5028005;28;20059;-71
2021/07/25 15:28:58;;;;;;;10.45;4.05;;;30.80;73.70;;;;;;5025369;28;20052;-70
2021/07/25 15:32:05;;;;;;;12.68;4.22;;;31.30;71.90;;;;;;5050963;28;20052;-69
2021/07/25 15:35:09;;;;;;;15.77;3.58;;;31.60;70.80;;;;;;5051915;28;20040;-70
2021/07/25 15:38:13;;;;;;;11.98;4.00;;;31.60;69.80;;;;;;5052677;28;20047;-70
2021/07/25 15:41:19;;;;;;;6.70;3.60;;;31.60;70.40;;;;;;5051952;28;20052;-70
2021/07/25 15:44:23;;;;;;;12.05;3.33;;;31.30;71.10;;;;;;5052326;28;20043;-69
2021/07/25 15:47:28;;;;;;;11.20;4.30;;;31.20;70.40;;;;;;5050881;28;20052;-70
2021/07/25 15:50:32;;;;;;;13.07;3.80;;;31.00;71.00;;;;;;5039570;28;20120;-70
2021/07/25 15:53:37;;;;;;;9.20;4.00;;;30.90;70.90;;;;;;5051897;28;20112;-70
2021/07/25 15:56:44;;;;;;;11.93;4.18;;;31.00;70.90;;;;;;5051805;28;20044;-70
2021/07/25 15:59:48;;;;;;;10.48;4.43;;;31.00;71.00;;;;;;5051857;28;20399;-70
2021/07/25 16:02:53;;;;;;;9.75;3.88;;;31.20;70.20;;;;;;5051944;28;20044;-71
2021/07/25 16:05:59;;;;;;;11.73;5.90;;;31.30;71.10;;;;;;5051495;28;20039;-70
2021/07/25 16:09:04;;;;;;;9.77;4.43;;;31.50;69.50;;;;;;5051709;28;20064;-70
2021/07/25 16:12:09;;;;;;;7.88;3.38;;;31.00;71.50;;;;;;5051011;28;20040;-70